Glencoe, MN

4:58 AM CST on February 08, 2016 (GMT -0600)
Severance Lake | | Change Station
CLOSE
Current Station
Personal Weather Station
Location: Glencoe, MN
Elevation: 997 ft
Nearby Weather Stations
Active Advisory: Winter Weather Advisory

Elev 997 ft 44.68 °N, 94.13 °W | Updated 14 minutes ago

Overcast
Overcast
11.7 °F
Feels Like -8 °F
N
24.0
Wind Variable Wind from NW
Gusts 27.0 mph

Today
High -- | Low -- °F
--% Chance of Precip.
Yesterday
High -- | Low -- °F
Precip. -- in
Pressure 29.86 in
Visibility 7.0 miles
Clouds Scattered Clouds 1800 ft
Mostly Cloudy 4000 ft
Overcast 4800 ft
Windchill -8 °F
Dew Point 8 °F
Humidity 85%
Rainfall 0.00 in
Snow Depth Not available.
7:27 AM 5:34 PM
Waning Crescent, 0% visible
METAR KGYL 081055Z AUTO 32016G25KT 7SM SCT018 BKN040 OVC048 M11/M13 A2986 RMK AO2 T11071135
Pressure 29.86 in
Visibility 7.0 miles
Clouds Scattered Clouds 1800 ft
Mostly Cloudy 4000 ft
Overcast 4800 ft
Windchill -8 °F
Dew Point 8 °F
Humidity 85%
Rainfall 0.00 in
Snow Depth Not available.
7:27 AM 5:34 PM
Waning Crescent, 0% visible
METAR KGYL 081055Z AUTO 32016G25KT 7SM SCT018 BKN040 OVC048 M11/M13 A2986 RMK AO2 T11071135

10-Day Weather Forecast

Almanac

Astronomy

Feb. 08, 2016 Rise Set
Actual Time
Civil Twilight
Nautical Twilight
Astronomical Twilight
Moon
Length of Visible Light
Length of Day
Tomorrow will be .
, % of the Moon is Illuminated

Today's Extremes

State Highs State Lows

Community

WunderPhotos

Upload Photos

1,891,420 photos uploaded!

WunderBlog® & News

Nearby

Air Quality

  Air Quality AQ Index Pollutant
Not available.

Snow Depth

Station Depth Elevation

Earthquake Activity

City Distance Mag. Time & Date
Minimum magnitude displayed is 2.5.

Coastal Water Temperatures

Place Temperature

Stations

Nearby Weather Stations

Station Location Temp. Windchill Dew Point Humidity Wind Precip. Elev Updated Type
                   

Watches & Warnings

Winter Weather Advisory
Issued: 3:47 AM CST Feb. 8, 2016 – National Weather Service

... Winter Weather Advisory in effect until noon CST today...
... Blizzard Warning is cancelled...

The National Weather Service in Twin Cities/Chanhassen has issued
a Winter Weather Advisory for blowing snow... which is in effect
until noon CST today. The Blizzard Warning has been cancelled.

* Expect occasional light snow through noon.

* Additional snow accumulations of less than in inch expected.

* Winds gusting as high as 30 mph will cause areas of blowing
snow.

* Plan on reduced visibility at times and slippery Road
conditions.

Precautionary/preparedness actions...

A Winter Weather Advisory for snow means periods of snow will
cause primarily travel difficulties. Be prepared for snow covered
roads and limited visibilities... and use caution while driving.
The latest Road conditions for the state you are calling from can
be obtained by calling 5 1 1.